Time;durP1;ratioP1;P1;durP2;ratioP2;P2;SDS_P1;SDS_P2;PMS_P1;PMS_P2;Temp;Humidity;BMP_temperature;BMP_pressure;BME280_temperature;BME280_humidity;BME280_pressure;Samples;Min_cycle;Max_cycle;Signal;HPM_P1;HPM_P2
2021/09/11 00:02:17;;;;;;;;;;;20.40;91.40;;;;;;5093336;28;20281;-70
2021/09/11 00:04:46;;;;;;;;;;;20.40;89.30;;;;;;5093831;28;19908;-69
2021/09/11 00:07:13;;;;;;;;;;;20.50;85.10;;;;;;5093641;28;20359;-69
2021/09/11 00:09:40;;;;;;;;;;;20.50;84.70;;;;;;5092939;28;19912;-70
2021/09/11 00:12:07;;;;;;;;;;;20.70;84.10;;;;;;5093516;28;20325;-67
2021/09/11 00:14:34;;;;;;;;;;;21.00;80.00;;;;;;5093688;28;19915;-69
2021/09/11 00:17:00;;;;;;;;;;;21.10;81.10;;;;;;5093638;28;19982;-69
2021/09/11 00:19:27;;;;;;;;;;;21.20;78.90;;;;;;5093505;28;20346;-69
2021/09/11 00:21:54;;;;;;;;;;;21.10;77.10;;;;;;5093432;28;19916;-69
2021/09/11 00:24:20;;;;;;;;;;;21.00;77.00;;;;;;5093126;28;19915;-68
2021/09/11 00:26:47;;;;;;;;;;;21.10;74.90;;;;;;5093207;28;20358;-69
2021/09/11 00:29:14;;;;;;;;;;;21.30;73.70;;;;;;5093233;28;20007;-68
2021/09/11 00:31:40;;;;;;;;;;;21.70;73.40;;;;;;5093138;28;20252;-68
2021/09/11 00:34:07;;;;;;;;;;;21.80;71.00;;;;;;5093223;28;19908;-68
2021/09/11 00:36:33;;;;;;;;;;;22.00;69.10;;;;;;5093072;28;20011;-69
2021/09/11 00:39:00;;;;;;;;;;;22.10;66.60;;;;;;5092548;28;19962;-70
2021/09/11 00:41:27;;;;;;;;;;;22.00;67.70;;;;;;5092995;28;19915;-69
2021/09/11 00:43:54;;;;;;;;;;;22.00;67.10;;;;;;5092951;28;19998;-69
2021/09/11 00:46:20;;;;;;;;;;;22.30;67.30;;;;;;5092609;28;19923;-69
2021/09/11 00:48:47;;;;;;;;;;;22.30;64.20;;;;;;5092978;28;20625;-69
2021/09/11 00:51:14;;;;;;;;;;;22.30;64.70;;;;;;5092810;28;20362;-68
2021/09/11 00:53:40;;;;;;;;;;;22.30;63.80;;;;;;5092225;28;19916;-69
2021/09/11 00:56:07;;;;;;;;;;;22.20;63.00;;;;;;5092533;28;19920;-69
2021/09/11 00:58:34;;;;;;;;;;;22.30;63.40;;;;;;5092781;28;19932;-69
2021/09/11 01:01:01;;;;;;;;;;;22.40;64.20;;;;;;5092847;28;19908;-69
2021/09/11 01:03:27;;;;;;;;;;;22.60;63.00;;;;;;5092830;28;19953;-69
2021/09/11 01:05:54;;;;;;;;;;;22.80;62.40;;;;;;5092459;28;19966;-69
2021/09/11 01:08:21;;;;;;;;;;;23.30;59.10;;;;;;5092181;28;19919;-68
2021/09/11 01:10:48;;;;;;;;;;;23.80;59.70;;;;;;5092677;28;19965;-70
2021/09/11 01:13:14;;;;;;;;;;;24.40;59.00;;;;;;5092813;28;19951;-70
2021/09/11 01:15:43;;;;;;;;;;;24.80;57.40;;;;;;5092346;28;19916;-70
2021/09/11 01:18:09;;;;;;;;;;;24.80;56.20;;;;;;5092575;28;20358;-70
2021/09/11 01:20:36;;;;;;;;;;;25.20;57.50;;;;;;5092534;28;19908;-70
2021/09/11 01:23:04;;;;;;;;;;;25.40;56.00;;;;;;5091953;28;19908;-70
2021/09/11 01:25:30;;;;;;;;;;;25.40;54.00;;;;;;5092317;28;19908;-70
2021/09/11 01:27:58;;;;;;;;;;;25.50;54.20;;;;;;5092807;28;19908;-70
2021/09/11 01:30:25;;;;;;;;;;;25.50;54.30;;;;;;5092391;28;19961;-71
2021/09/11 01:32:51;;;;;;;;;;;25.30;53.40;;;;;;5092227;28;19915;-70
2021/09/11 01:35:18;;;;;;;;;;;25.10;54.00;;;;;;5092193;28;20394;-70
2021/09/11 01:37:45;;;;;;;;;;;24.80;52.90;;;;;;5091576;28;19912;-69
2021/09/11 01:40:12;;;;;;;;;;;24.50;52.10;;;;;;5092315;28;20328;-70
2021/09/11 01:42:39;;;;;;;;;;;24.30;53.40;;;;;;5092327;28;19909;-70
2021/09/11 01:45:15;;;;;;;;;;;24.40;55.00;;;;;;5092355;28;20336;-70
2021/09/11 01:47:42;;;;;;;;;;;24.30;55.30;;;;;;5091883;28;19928;-70
2021/09/11 01:50:10;;;;;;;;;;;24.30;55.60;;;;;;5092270;28;19958;-71
2021/09/11 01:52:37;;;;;;;;;;;24.50;55.00;;;;;;5091773;28;20385;-70
2021/09/11 01:55:07;;;;;;;;;;;24.60;55.20;;;;;;5092239;28;20306;-70
2021/09/11 01:57:38;;;;;;;;;;;24.50;56.90;;;;;;5093239;28;19912;-70
2021/09/11 02:00:08;;;;;;;;;;;24.40;56.60;;;;;;5096325;28;20007;-70
2021/09/11 02:02:35;;;;;;;;;;;24.20;57.90;;;;;;5096323;28;19914;-68
2021/09/11 02:05:02;;;;;;;;;;;24.20;58.70;;;;;;5096102;28;19908;-68
2021/09/11 02:07:29;;;;;;;;;;;24.10;56.40;;;;;;5095609;28;20312;-69
2021/09/11 02:09:56;;;;;;;;;;;24.10;57.50;;;;;;5096021;28;20041;-69
2021/09/11 02:12:23;;;;;;;;;;;24.10;58.70;;;;;;5095678;28;19950;-69
2021/09/11 02:14:49;;;;;;;;;;;24.40;57.40;;;;;;5093917;28;19912;-68
2021/09/11 02:17:16;;;;;;;;;;;24.70;55.40;;;;;;5093854;28;19949;-69
2021/09/11 02:19:43;;;;;;;;;;;24.70;55.20;;;;;;5093343;28;19908;-69
2021/09/11 02:22:11;;;;;;;;;;;24.60;55.40;;;;;;5093315;28;20024;-69
2021/09/11 02:24:38;;;;;;;;;;;25.00;54.90;;;;;;5093844;28;19915;-69
2021/09/11 02:27:06;;;;;;;;;;;25.00;53.40;;;;;;5092953;28;19958;-69
2021/09/11 02:29:32;;;;;;;;;;;24.90;53.10;;;;;;5093362;28;20397;-69
2021/09/11 02:32:01;;;;;;;;;;;24.80;54.60;;;;;;5093534;28;20274;-70
2021/09/11 02:34:29;;;;;;;;;;;24.60;54.70;;;;;;5093302;28;19912;-70
2021/09/11 02:36:55;;;;;;;;;;;24.80;54.50;;;;;;5092951;28;20377;-69
2021/09/11 02:39:22;;;;;;;;;;;24.70;54.80;;;;;;5091940;28;20263;-69
2021/09/11 02:41:49;;;;;;;;;;;24.50;55.70;;;;;;5092539;28;20272;-70
2021/09/11 02:44:15;;;;;;;;;;;24.30;55.60;;;;;;5093396;28;20296;-70
2021/09/11 02:46:42;;;;;;;;;;;24.50;55.70;;;;;;5093252;28;20315;-69
2021/09/11 02:49:09;;;;;;;;;;;24.70;53.20;;;;;;5093219;28;19908;-69
2021/09/11 02:51:35;;;;;;;;;;;24.90;52.30;;;;;;5092501;28;19947;-70
2021/09/11 02:54:02;;;;;;;;;;;24.80;53.60;;;;;;5092914;28;19993;-70
2021/09/11 02:56:29;;;;;;;;;;;24.80;52.60;;;;;;5092621;28;19916;-70
2021/09/11 02:58:55;;;;;;;;;;;24.70;52.30;;;;;;5093189;28;20277;-71
2021/09/11 03:01:23;;;;;;;;;;;24.60;51.70;;;;;;5093066;28;19912;-70
2021/09/11 03:03:49;;;;;;;;;;;24.60;51.80;;;;;;5092892;28;20468;-70
2021/09/11 03:06:16;;;;;;;;;;;24.70;52.90;;;;;;5092334;28;19912;-70
2021/09/11 03:08:43;;;;;;;;;;;24.60;53.90;;;;;;5092476;28;19916;-70
2021/09/11 03:11:09;;;;;;;;;;;24.70;53.10;;;;;;5092581;28;20367;-70
2021/09/11 03:13:36;;;;;;;;;;;24.60;52.20;;;;;;5125070;27;19915;-70
2021/09/11 03:16:02;;;;;;;;;;;24.40;53.20;;;;;;5092693;28;19916;-70
2021/09/11 03:18:29;;;;;;;;;;;24.40;52.00;;;;;;5092786;28;20445;-70
2021/09/11 03:20:56;;;;;;;;;;;24.60;51.90;;;;;;5091724;28;19954;-70
2021/09/11 03:23:22;;;;;;;;;;;24.90;52.80;;;;;;5092532;28;19912;-69
2021/09/11 03:25:49;;;;;;;;;;;25.20;50.80;;;;;;5092450;28;20286;-70
2021/09/11 03:28:16;;;;;;;;;;;25.30;49.80;;;;;;5092701;28;19909;-70
2021/09/11 03:30:42;;;;;;;;;;;25.50;51.30;;;;;;5092611;28;20398;-70
2021/09/11 03:33:09;;;;;;;;;;;25.40;49.70;;;;;;5092377;28;19955;-70
2021/09/11 03:35:36;;;;;;;;;;;25.20;50.90;;;;;;5091863;28;19916;-70
2021/09/11 03:38:02;;;;;;;;;;;25.20;50.70;;;;;;5091758;28;20271;-70
2021/09/11 03:40:29;;;;;;;;;;;25.20;50.50;;;;;;5092344;28;19913;-70
2021/09/11 03:42:56;;;;;;;;;;;25.10;50.70;;;;;;5092343;28;20015;-70
2021/09/11 03:45:23;;;;;;;;;;;25.10;51.40;;;;;;5092063;28;19981;-70
2021/09/11 03:47:49;;;;;;;;;;;25.20;50.40;;;;;;5091732;28;20444;-70
2021/09/11 03:50:16;;;;;;;;;;;25.10;50.50;;;;;;5092136;28;19951;-69
2021/09/11 03:52:43;;;;;;;;;;;25.00;52.60;;;;;;5091419;28;19912;-70
2021/09/11 03:55:10;;;;;;;;;;;25.10;50.90;;;;;;5091865;28;19931;-69
2021/09/11 03:57:36;;;;;;;;;;;25.10;50.70;;;;;;5091771;28;19919;-69
2021/09/11 04:00:03;;;;;;;;;;;25.00;49.60;;;;;;5091537;28;19908;-70
2021/09/11 04:02:30;;;;;;;;;;;25.10;49.50;;;;;;5091981;28;19919;-70
2021/09/11 04:04:57;;;;;;;;;;;25.30;49.10;;;;;;5091768;28;19991;-70
2021/09/11 04:07:24;;;;;;;;;;;25.20;50.70;;;;;;5091680;28;19954;-70
2021/09/11 04:09:50;;;;;;;;;;;25.20;50.40;;;;;;5091246;28;19912;-70
2021/09/11 04:12:17;;;;;;;;;;;25.20;50.20;;;;;;5091336;28;19912;-70
2021/09/11 04:14:43;;;;;;;;;;;25.30;50.90;;;;;;5091387;28;19954;-70
2021/09/11 04:17:10;;;;;;;;;;;25.50;49.10;;;;;;5091556;28;19920;-70
2021/09/11 04:19:37;;;;;;;;;;;25.60;49.90;;;;;;5090823;28;19908;-70
2021/09/11 04:22:04;;;;;;;;;;;25.50;50.40;;;;;;5090762;28;20298;-70
2021/09/11 04:24:30;;;;;;;;;;;25.40;49.80;;;;;;5091037;28;20296;-70
2021/09/11 04:26:57;;;;;;;;;;;25.40;50.10;;;;;;5091418;28;20402;-69
2021/09/11 04:29:23;;;;;;;;;;;25.70;49.40;;;;;;5091270;28;19919;-69
2021/09/11 04:31:50;;;;;;;;;;;25.60;49.50;;;;;;5090978;28;20031;-69
2021/09/11 04:34:17;;;;;;;;;;;25.50;50.90;;;;;;5091144;28;19914;-69
2021/09/11 04:36:43;;;;;;;;;;;25.70;49.70;;;;;;5090656;28;19956;-69
2021/09/11 04:39:10;;;;;;;;;;;25.70;51.40;;;;;;5090881;28;19919;-69
2021/09/11 04:41:37;;;;;;;;;;;25.60;50.70;;;;;;5089506;28;20312;-69
2021/09/11 04:44:04;;;;;;;;;;;25.60;51.10;;;;;;5090982;28;19908;-69
2021/09/11 04:46:30;;;;;;;;;;;25.50;51.40;;;;;;5090795;28;19924;-68
2021/09/11 04:48:57;;;;;;;;;;;25.60;49.60;;;;;;5090810;28;20011;-69
2021/09/11 04:51:23;;;;;;;;;;;25.50;50.60;;;;;;5090052;28;20398;-69
2021/09/11 04:53:52;;;;;;;;;;;25.40;51.20;;;;;;5090490;28;20323;-69
2021/09/11 04:56:19;;;;;;;;;;;25.40;51.20;;;;;;5090544;28;20015;-70
2021/09/11 04:58:46;;;;;;;;;;;25.40;51.80;;;;;;5090945;28;19976;-70
2021/09/11 05:01:12;;;;;;;;;;;25.50;50.70;;;;;;5090849;28;20282;-69
2021/09/11 05:03:39;;;;;;;;;;;25.50;51.50;;;;;;5090617;28;19912;-70
2021/09/11 05:06:05;;;;;;;;;;;25.50;50.80;;;;;;5089912;28;20003;-69
2021/09/11 05:08:32;;;;;;;;;;;25.50;50.20;;;;;;5090643;28;20038;-69
2021/09/11 05:10:59;;;;;;;;;;;25.50;50.40;;;;;;5090450;28;19961;-69
2021/09/11 05:13:25;;;;;;;;;;;25.70;50.10;;;;;;5090266;28;19981;-69
2021/09/11 05:15:52;;;;;;;;;;;25.40;51.50;;;;;;5090657;28;19923;-70
2021/09/11 05:18:19;;;;;;;;;;;25.20;50.80;;;;;;5090143;28;19915;-70
2021/09/11 05:20:45;;;;;;;;;;;25.20;50.60;;;;;;5090092;28;19922;-70
2021/09/11 05:23:12;;;;;;;;;;;25.40;50.10;;;;;;5090681;28;20378;-69
2021/09/11 05:25:39;;;;;;;;;;;25.20;50.10;;;;;;5090190;28;19915;-69
2021/09/11 05:28:05;;;;;;;;;;;25.10;49.70;;;;;;5090389;28;19912;-71
2021/09/11 05:30:32;;;;;;;;;;;25.10;49.50;;;;;;5089674;28;19915;-69
2021/09/11 05:32:59;;;;;;;;;;;25.00;49.50;;;;;;5089465;28;19909;-70
2021/09/11 05:35:25;;;;;;;;;;;25.00;49.20;;;;;;5090268;28;19974;-70
2021/09/11 05:37:52;;;;;;;;;;;25.00;50.70;;;;;;5090074;28;19918;-69
2021/09/11 05:40:19;;;;;;;;;;;25.10;51.30;;;;;;5090145;28;20259;-70
2021/09/11 05:42:45;;;;;;;;;;;25.00;49.00;;;;;;5090406;28;20401;-69
2021/09/11 05:45:12;;;;;;;;;;;25.00;50.00;;;;;;5089979;28;19908;-70
2021/09/11 05:47:39;;;;;;;;;;;25.00;50.40;;;;;;5089970;28;19977;-70
2021/09/11 05:50:05;;;;;;;;;;;25.00;49.60;;;;;;5090333;28;19955;-70
2021/09/11 05:52:32;;;;;;;;;;;25.10;49.90;;;;;;5090296;28;19994;-69
2021/09/11 05:54:59;;;;;;;;;;;25.20;48.10;;;;;;5089920;28;19912;-70
2021/09/11 05:57:25;;;;;;;;;;;25.30;47.50;;;;;;5089737;28;20402;-70
2021/09/11 05:59:53;;;;;;;;;;;25.30;48.00;;;;;;5089951;28;19916;-70
2021/09/11 06:02:20;;;;;;;;;;;25.40;49.60;;;;;;5090328;28;20348;-71
2021/09/11 06:04:47;;;;;;;;;;;25.30;48.40;;;;;;5090396;28;20334;-71
2021/09/11 06:07:14;;;;;;;;;;;25.10;48.80;;;;;;5090137;28;19912;-71
2021/09/11 06:09:40;;;;;;;;;;;25.00;50.40;;;;;;5089429;28;19919;-71
2021/09/11 06:12:10;;;;;;;;;;;24.90;48.90;;;;;;5090104;28;20351;-70
2021/09/11 06:14:37;;;;;;;;;;;25.00;48.40;;;;;;5088178;28;19999;-70
2021/09/11 06:17:04;;;;;;;;;;;24.90;48.20;;;;;;5089752;28;20385;-69
2021/09/11 06:19:31;;;;;;;;;;;24.90;47.90;;;;;;5089248;28;19908;-70
2021/09/11 06:21:58;;;;;;;;;;;25.00;47.50;;;;;;5089693;28;19953;-70
2021/09/11 06:24:24;;;;;;;;;;;25.10;47.30;;;;;;5089674;28;19912;-70
2021/09/11 06:26:51;;;;;;;;;;;25.00;48.40;;;;;;5089852;28;19951;-71
2021/09/11 06:29:17;;;;;;;;;;;25.00;48.30;;;;;;5090031;28;19915;-71
2021/09/11 06:31:44;;;;;;;;;;;25.00;47.70;;;;;;5089660;28;20000;-69
2021/09/11 06:34:11;;;;;;;;;;;25.00;45.40;;;;;;5089189;28;19912;-69
2021/09/11 06:36:37;;;;;;;;;;;25.00;43.80;;;;;;5089392;28;19928;-68
2021/09/11 06:39:04;;;;;;;;;;;24.80;44.60;;;;;;5089667;28;20146;-68
2021/09/11 06:41:31;;;;;;;;;;;24.60;44.30;;;;;;5089238;28;19908;-69
2021/09/11 06:43:57;;;;;;;;;;;24.80;43.60;;;;;;5091568;28;20011;-69
2021/09/11 06:46:24;;;;;;;;;;;24.70;43.70;;;;;;5093204;28;20344;-69
2021/09/11 06:48:51;;;;;;;;;;;24.90;42.00;;;;;;5092713;28;19912;-68
2021/09/11 06:51:17;;;;;;;;;;;24.70;43.10;;;;;;5093744;28;19998;-71
2021/09/11 06:53:44;;;;;;;;;;;24.80;43.80;;;;;;5092887;28;19963;-70
2021/09/11 06:56:10;;;;;;;;;;;24.60;43.20;;;;;;5092897;28;19951;-68
2021/09/11 06:58:37;;;;;;;;;;;24.60;43.10;;;;;;5093087;28;20255;-69
2021/09/11 07:01:04;;;;;;;;;;;24.40;43.60;;;;;;5091709;28;20004;-70
2021/09/11 07:03:30;;;;;;;;;;;24.20;44.10;;;;;;5092154;28;19908;-70
2021/09/11 07:05:58;;;;;;;;;;;24.20;43.50;;;;;;5093118;28;19914;-70
2021/09/11 07:08:25;;;;;;;;;;;24.20;43.80;;;;;;5092855;28;20423;-69
2021/09/11 07:10:52;;;;;;;;;;;24.10;45.00;;;;;;5092809;28;19908;-70
2021/09/11 07:13:18;;;;;;;;;;;24.10;43.70;;;;;;5091111;28;19908;-70
2021/09/11 07:15:45;;;;;;;;;;;24.10;43.50;;;;;;5073264;28;19985;-69
2021/09/11 07:18:11;;;;;;;;;;;23.90;44.60;;;;;;5072436;28;20430;-69
2021/09/11 07:20:38;;;;;;;;;;;23.90;44.40;;;;;;5072110;28;19948;-70
2021/09/11 07:23:05;;;;;;;;;;;23.80;44.10;;;;;;5072192;28;19912;-70
2021/09/11 07:25:31;;;;;;;;;;;23.70;43.90;;;;;;5072435;28;19909;-70
2021/09/11 07:27:58;;;;;;;;;;;23.60;43.60;;;;;;5072356;28;19909;-70
2021/09/11 07:30:25;;;;;;;;;;;23.40;43.90;;;;;;5104248;28;19919;-70
2021/09/11 07:32:52;;;;;;;;;;;23.40;44.50;;;;;;5072292;28;19915;-70
2021/09/11 07:35:18;;;;;;;;;;;23.50;44.60;;;;;;5072165;28;20007;-70
2021/09/11 07:37:45;;;;;;;;;;;23.50;43.90;;;;;;5071856;28;20381;-70
2021/09/11 07:40:12;;;;;;;;;;;23.50;44.40;;;;;;5071915;28;19912;-69
2021/09/11 07:42:38;;;;;;;;;;;23.50;43.10;;;;;;5071857;28;19919;-69
2021/09/11 07:45:06;;;;;;;;;;;23.50;45.10;;;;;;5072198;28;20260;-69
2021/09/11 07:47:33;;;;;;;;;;;23.40;44.00;;;;;;5071254;28;20004;-69
2021/09/11 07:49:59;;;;;;;;;;;23.30;43.90;;;;;;5071782;28;20491;-69
2021/09/11 07:52:26;;;;;;;;;;;23.20;44.10;;;;;;5071965;28;20365;-69
2021/09/11 07:54:52;;;;;;;;;;;23.00;44.00;;;;;;5070350;28;19908;-68
2021/09/11 07:57:19;;;;;;;;;;;22.90;44.40;;;;;;5071636;28;20054;-69
2021/09/11 07:59:46;;;;;;;;;;;22.70;44.50;;;;;;5071455;28;19991;-69
2021/09/11 08:02:12;;;;;;;;;;;22.60;44.90;;;;;;5071662;28;20445;-68
2021/09/11 08:04:39;;;;;;;;;;;22.60;45.30;;;;;;5071716;28;19962;-68
2021/09/11 08:07:06;;;;;;;;;;;22.60;45.50;;;;;;5071225;28;19908;-68
2021/09/11 08:09:32;;;;;;;;;;;22.60;46.30;;;;;;5071133;28;20018;-69
2021/09/11 08:11:59;;;;;;;;;;;22.60;45.90;;;;;;5071438;28;19908;-69
2021/09/11 08:14:26;;;;;;;;;;;22.60;45.50;;;;;;5071498;28;19916;-69
2021/09/11 08:16:52;;;;;;;;;;;22.60;45.90;;;;;;5071306;28;20015;-70
2021/09/11 08:19:19;;;;;;;;;;;22.40;45.90;;;;;;5071260;28;19920;-69
2021/09/11 08:21:45;;;;;;;;;;;22.40;46.30;;;;;;5070700;28;19935;-69
2021/09/11 08:24:12;;;;;;;;;;;22.40;47.30;;;;;;5071312;28;19919;-69
2021/09/11 08:26:39;;;;;;;;;;;22.30;47.60;;;;;;5071232;28;19952;-69
2021/09/11 08:29:06;;;;;;;;;;;22.40;47.80;;;;;;5071148;28;19913;-69
2021/09/11 08:31:32;;;;;;;;;;;22.40;48.20;;;;;;5070795;28;20274;-69
2021/09/11 08:33:59;;;;;;;;;;;22.30;48.10;;;;;;5070711;28;20436;-69
2021/09/11 08:36:26;;;;;;;;;;;22.30;48.60;;;;;;5103393;28;20294;-69
2021/09/11 08:38:52;;;;;;;;;;;22.20;50.10;;;;;;5070899;28;19992;-69
2021/09/11 08:41:19;;;;;;;;;;;22.20;50.20;;;;;;5070909;28;20007;-69
2021/09/11 08:43:46;;;;;;;;;;;22.20;49.50;;;;;;5070886;28;20383;-69
2021/09/11 08:46:12;;;;;;;;;;;22.20;49.90;;;;;;5070313;28;19920;-69
2021/09/11 08:48:39;;;;;;;;;;;22.20;49.90;;;;;;5070826;28;19920;-69
2021/09/11 08:51:07;;;;;;;;;;;22.10;50.10;;;;;;5070737;28;19916;-68
2021/09/11 08:53:35;;;;;;;;;;;22.00;50.40;;;;;;5070265;28;19912;-69
2021/09/11 08:56:02;;;;;;;;;;;22.10;50.70;;;;;;5070489;28;19959;-69
2021/09/11 08:58:29;;;;;;;;;;;22.00;51.00;;;;;;5070717;28;19915;-69
2021/09/11 09:00:58;;;;;;;;;;;22.10;50.50;;;;;;5070072;28;20389;-69
2021/09/11 09:03:35;;;;;;;;;;;22.10;50.70;;;;;;5070453;28;20669;-69
2021/09/11 09:06:20;;;;;;;;;;;22.10;50.80;;;;;;5070354;28;19916;-69
2021/09/11 09:08:49;;;;;;;;;;;22.10;51.20;;;;;;5070344;28;19982;-69
2021/09/11 09:11:25;;;;;;;;;;;22.20;51.20;;;;;;5070451;28;20347;-69
2021/09/11 09:13:59;;;;;;;;;;;22.20;50.50;;;;;;5070131;28;19987;-69
2021/09/11 09:16:27;;;;;;;;;;;22.20;50.70;;;;;;5070310;28;19940;-69
2021/09/11 09:18:54;;;;;;;;;;;22.20;50.90;;;;;;5070506;28;20309;-69
2021/09/11 09:21:21;;;;;;;;;;;22.20;51.40;;;;;;5070733;28;19908;-69
2021/09/11 09:23:52;;;;;;;;;;;22.10;51.40;;;;;;5070026;28;19954;-71
2021/09/11 09:26:20;;;;;;;;;;;22.10;51.10;;;;;;5070007;28;19935;-70
2021/09/11 09:29:24;;;;;;;;;;;22.10;51.20;;;;;;5070287;28;19912;-70
2021/09/11 09:31:56;;;;;;;;;;;22.10;51.70;;;;;;5047348;28;19948;-69
2021/09/11 09:34:29;;;;;;;;;;;22.10;50.90;;;;;;5047478;28;19931;-70
2021/09/11 09:36:57;;;;;;;;;;;22.00;52.00;;;;;;5060178;28;20011;-69
2021/09/11 09:39:23;;;;;;;;;;;22.10;52.00;;;;;;5069734;28;19916;-70
2021/09/11 09:41:51;;;;;;;;;;;22.00;51.20;;;;;;5069879;28;19912;-69
2021/09/11 09:44:19;;;;;;;;;;;22.00;50.90;;;;;;5069629;28;19964;-69
2021/09/11 09:46:46;;;;;;;;;;;22.00;52.40;;;;;;5069605;28;19916;-69
2021/09/11 09:49:17;;;;;;;;;;;22.00;51.30;;;;;;5069136;28;19913;-69
2021/09/11 09:51:44;;;;;;;;;;;22.00;50.50;;;;;;5070136;28;20254;-69
2021/09/11 09:54:12;;;;;;;;;;;22.10;50.90;;;;;;5070009;28;19945;-69
2021/09/11 09:56:39;;;;;;;;;;;22.10;50.40;;;;;;5070115;28;19917;-70
2021/09/11 09:59:07;;;;;;;;;;;22.00;50.60;;;;;;5070056;28;19909;-70
2021/09/11 10:01:33;;;;;;;;;;;22.00;51.10;;;;;;5069275;28;20034;-69
2021/09/11 10:04:12;;;;;;;;;;;22.10;51.60;;;;;;5070159;28;19916;-69
2021/09/11 10:06:39;;;;;;;;;;;22.10;52.50;;;;;;5070026;28;19913;-69
2021/09/11 10:09:07;;;;;;;;;;;22.10;51.60;;;;;;5069839;28;19916;-69
2021/09/11 10:11:35;;;;;;;;;;;22.00;52.60;;;;;;5069714;28;19962;-69
2021/09/11 10:14:02;;;;;;;;;;;21.90;52.70;;;;;;5070053;28;19912;-70
2021/09/11 10:16:30;;;;;;;;;;;21.80;53.30;;;;;;5069556;28;19971;-70
2021/09/11 10:18:57;;;;;;;;;;;21.70;54.20;;;;;;5071690;28;19916;-70
2021/09/11 10:21:44;;;;;;;;;;;21.60;53.70;;;;;;5073683;28;20264;-69
2021/09/11 10:24:14;;;;;;;;;;;21.50;53.80;;;;;;5073500;28;19935;-69
2021/09/11 10:26:46;;;;;;;;;;;21.40;53.20;;;;;;5073680;28;19916;-70
2021/09/11 10:29:31;;;;;;;;;;;21.40;53.00;;;;;;5073262;28;20339;-70
2021/09/11 10:32:01;;;;;;;;;;;21.40;53.90;;;;;;5073462;28;20003;-70
2021/09/11 10:34:46;;;;;;;;;;;21.40;54.00;;;;;;5073469;28;19999;-69
2021/09/11 10:37:22;;;;;;;;;;;21.40;53.30;;;;;;5105918;28;19916;-70
2021/09/11 10:40:08;;;;;;;;;;;21.40;53.00;;;;;;5073028;28;20022;-70
2021/09/11 10:42:54;;;;;;;;;;;21.40;52.40;;;;;;5072888;28;20450;-69
2021/09/11 10:45:37;;;;;;;;;;;21.30;52.40;;;;;;5073059;28;19920;-69
2021/09/11 10:48:07;;;;;;;;;;;21.30;52.60;;;;;;5073173;28;20400;-69
2021/09/11 10:50:40;;;;;;;;;;;21.30;52.00;;;;;;5073217;28;19991;-70
2021/09/11 10:53:21;;;;;;;;;;;21.30;51.90;;;;;;5073056;28;19908;-68
2021/09/11 10:55:50;;;;;;;;;;;21.40;51.20;;;;;;5072237;28;19920;-69
2021/09/11 10:58:26;;;;;;;;;;;21.60;52.20;;;;;;5073084;28;19962;-69
2021/09/11 11:00:56;;;;;;;;;;;21.60;51.90;;;;;;5072937;28;20025;-70
2021/09/11 11:03:23;;;;;;;;;;;21.50;51.70;;;;;;5072838;28;19992;-70
2021/09/11 11:06:02;;;;;;;;;;;21.50;53.20;;;;;;5072779;28;19915;-70
2021/09/11 11:08:29;;;;;;;;;;;21.50;52.50;;;;;;5072450;28;20054;-70
2021/09/11 11:10:56;;;;;;;;;;;21.50;52.50;;;;;;5072659;28;19961;-70
2021/09/11 11:13:23;;;;;;;;;;;21.40;52.90;;;;;;5072611;28;19909;-70
2021/09/11 11:15:56;;;;;;;;;;;21.40;53.20;;;;;;5072426;28;20014;-69
2021/09/11 11:18:23;;;;;;;;;;;21.40;53.10;;;;;;5072469;28;19930;-70
2021/09/11 11:20:49;;;;;;;;;;;21.40;53.50;;;;;;5072279;28;20334;-70
2021/09/11 11:23:16;;;;;;;;;;;21.40;52.90;;;;;;5072413;28;19909;-68
2021/09/11 11:25:43;;;;;;;;;;;21.40;53.20;;;;;;5072550;28;20359;-70
2021/09/11 11:28:11;;;;;;;;;;;21.40;53.50;;;;;;5072474;28;19923;-69
2021/09/11 11:30:41;;;;;;;;;;;21.40;53.10;;;;;;5072293;28;19909;-69
2021/09/11 11:33:08;;;;;;;;;;;21.40;53.20;;;;;;5072042;28;19917;-69
2021/09/11 11:35:38;;;;;;;;;;;21.30;53.70;;;;;;5072319;28;19920;-69
2021/09/11 11:38:05;;;;;;;;;;;21.30;53.50;;;;;;5072119;28;20371;-70
2021/09/11 11:40:31;;;;;;;;;;;21.20;53.20;;;;;;5072205;28;19914;-69
2021/09/11 11:43:06;;;;;;;;;;;21.20;53.40;;;;;;5072171;28;19958;-70
2021/09/11 11:45:34;;;;;;;;;;;21.20;53.70;;;;;;5071936;28;19920;-70
2021/09/11 11:48:06;;;;;;;;;;;21.20;53.80;;;;;;5071486;28;19928;-69
2021/09/11 11:50:34;;;;;;;;;;;21.10;52.80;;;;;;5072105;28;19974;-70
2021/09/11 11:53:02;;;;;;;;;;;21.10;53.70;;;;;;5071886;28;19958;-70
2021/09/11 11:55:30;;;;;;;;;;;21.00;56.10;;;;;;5071823;28;19966;-69
2021/09/11 11:58:15;;;;;;;;;;;20.90;57.10;;;;;;5071607;28;20320;-69
2021/09/11 12:00:43;;;;;;;;;;;20.70;58.40;;;;;;5071494;28;19915;-69
2021/09/11 12:03:28;;;;;;;;;;;20.50;59.40;;;;;;5071749;28;20277;-70
2021/09/11 12:05:55;;;;;;;;;;;20.40;59.40;;;;;;5071695;28;19914;-70
2021/09/11 12:08:21;;;;;;;;;;;20.30;59.00;;;;;;5071635;28;20026;-70
2021/09/11 12:10:53;;;;;;;;;;;20.30;58.90;;;;;;5071800;28;19915;-69
2021/09/11 12:13:20;;;;;;;;;;;20.30;58.60;;;;;;5069986;28;19913;-70
2021/09/11 12:15:47;;;;;;;;;;;20.30;58.30;;;;;;5071432;28;19920;-69
2021/09/11 12:18:18;;;;;;;;;;;20.30;58.10;;;;;;5071238;28;19913;-70
2021/09/11 12:20:49;;;;;;;;;;;20.20;58.60;;;;;;5071361;28;19908;-69
2021/09/11 12:23:18;;;;;;;;;;;20.30;59.30;;;;;;5071080;28;19913;-69
2021/09/11 12:25:48;;;;;;;;;;;20.30;57.30;;;;;;5070632;28;19917;-69
2021/09/11 12:28:30;;;;;;;;;;;20.30;56.80;;;;;;5070619;28;20002;-69
2021/09/11 12:30:57;;;;;;;;;;;20.30;57.20;;;;;;5071287;28;19935;-69
2021/09/11 12:33:29;;;;;;;;;;;20.30;56.40;;;;;;5070970;28;20182;-69
2021/09/11 12:35:56;;;;;;;;;;;20.30;56.60;;;;;;5071160;28;19922;-69
2021/09/11 12:38:38;;;;;;;;;;;20.30;56.70;;;;;;5070527;28;19919;-69
2021/09/11 12:41:05;;;;;;;;;;;20.30;57.40;;;;;;5070204;28;19923;-68
2021/09/11 12:43:31;;;;;;;;;;;20.30;57.50;;;;;;5070737;28;20000;-70
2021/09/11 12:45:58;;;;;;;;;;;20.20;56.50;;;;;;5070781;28;19917;-70
2021/09/11 12:48:25;;;;;;;;;;;20.20;57.00;;;;;;5070851;28;19925;-69
2021/09/11 12:50:51;;;;;;;;;;;20.20;56.30;;;;;;5070684;28;20191;-70
2021/09/11 12:53:18;;;;;;;;;;;20.20;57.20;;;;;;5070146;28;20286;-69
2021/09/11 12:55:45;;;;;;;;;;;20.20;57.50;;;;;;5069822;28;20007;-69
2021/09/11 12:58:11;;;;;;;;;;;20.20;57.90;;;;;;5070518;28;19912;-70
2021/09/11 13:00:38;;;;;;;;;;;20.20;56.60;;;;;;5070639;28;19973;-70
2021/09/11 13:03:05;;;;;;;;;;;20.20;57.00;;;;;;5070580;28;20435;-71
2021/09/11 13:05:32;;;;;;;;;;;20.20;56.50;;;;;;5069992;28;19912;-70
2021/09/11 13:07:58;;;;;;;;;;;20.20;56.40;;;;;;5070431;28;19916;-69
2021/09/11 13:10:25;;;;;;;;;;;20.20;56.80;;;;;;5068682;28;19924;-69
2021/09/11 13:12:52;;;;;;;;;;;20.20;56.30;;;;;;5070808;28;19908;-70
2021/09/11 13:15:18;;;;;;;;;;;20.30;57.00;;;;;;5070349;28;20038;-70
2021/09/11 13:17:45;;;;;;;;;;;20.30;57.00;;;;;;5070034;28;19912;-69
2021/09/11 13:20:12;;;;;;;;;;;20.30;56.90;;;;;;5070472;28;19971;-68
2021/09/11 13:22:38;;;;;;;;;;;20.30;56.60;;;;;;5070147;28;20069;-70
2021/09/11 13:25:07;;;;;;;;;;;20.30;56.50;;;;;;5070343;28;19917;-70
2021/09/11 13:27:34;;;;;;;;;;;20.30;55.80;;;;;;5069451;28;20414;-69
2021/09/11 13:30:01;;;;;;;;;;;20.30;56.90;;;;;;5070137;28;19908;-70
2021/09/11 13:32:27;;;;;;;;;;;20.20;56.80;;;;;;5069839;28;20298;-69
2021/09/11 13:34:54;;;;;;;;;;;20.30;55.90;;;;;;5070005;28;19919;-70
2021/09/11 13:37:21;;;;;;;;;;;20.20;55.30;;;;;;5069916;28;19995;-69
2021/09/11 13:39:50;;;;;;;;;;;20.30;56.30;;;;;;5070069;28;20007;-69
2021/09/11 13:42:16;;;;;;;;;;;20.20;55.80;;;;;;5101493;28;20426;-69
2021/09/11 13:44:48;;;;;;;;;;;20.20;55.90;;;;;;5069709;28;20389;-70
2021/09/11 13:47:18;;;;;;;;;;;20.20;55.50;;;;;;5069904;28;20028;-69
2021/09/11 13:49:44;;;;;;;;;;;20.20;55.40;;;;;;5069825;28;19908;-70
2021/09/11 13:52:11;;;;;;;;;;;20.20;55.70;;;;;;5070022;28;19909;-70
2021/09/11 13:54:42;;;;;;;;;;;20.20;55.80;;;;;;5073201;28;19978;-69
2021/09/11 13:57:10;;;;;;;;;;;20.20;55.70;;;;;;5073584;28;20003;-70
2021/09/11 13:59:39;;;;;;;;;;;20.20;55.90;;;;;;5073886;28;19962;-70
2021/09/11 14:02:06;;;;;;;;;;;20.20;55.60;;;;;;5074012;28;20023;-69
2021/09/11 14:04:32;;;;;;;;;;;20.20;54.90;;;;;;5073968;28;20370;-70
2021/09/11 14:06:59;;;;;;;;;;;20.20;54.90;;;;;;5073881;28;19959;-69
2021/09/11 14:09:26;;;;;;;;;;;20.30;54.90;;;;;;5074309;28;20303;-70
2021/09/11 14:11:53;;;;;;;;;;;20.30;54.70;;;;;;5072657;28;19912;-70
2021/09/11 14:14:20;;;;;;;;;;;20.30;55.50;;;;;;5073975;28;19909;-68
2021/09/11 14:16:46;;;;;;;;;;;20.30;54.20;;;;;;5073737;28;19916;-69
2021/09/11 14:19:13;;;;;;;;;;;20.30;55.00;;;;;;5073866;28;20321;-70
2021/09/11 14:21:40;;;;;;;;;;;20.20;53.90;;;;;;5073636;28;19912;-70